Líbí se Vám tento web? Budeme velmi rádi, pokud přidáte hodnocení +1

Seznam meteostanic a jejich METAR

Vyhledat místa podle abecedy:
A B C D E F G H I J K L M N O P Q R S T U V W X Y Z

Filtrovat:

ID stanice:
a/nebo
Název místa (fulltext):
 
Místo (ID)Naposledy načteno 
Brno - Tuřany (Brno/Tu) 23.09.2017 08:00 UTC Zobrazit data
Místo: Brno - Tuřany
Teplota: 9 °C (pocitová: 4.7 °C)
Vítr: 3 m/s z(e) 250°
Počasí: déšť
Dohlednost: 12 km
Zákl. oblačnosti: 2/8 1290 m;7/8 2400 m
Vlhkost: 87%
Červená - Opava (Cervena/uL) 23.09.2017 08:00 UTC Zobrazit data
Místo: Červená - Opava
Teplota: 7 °C (pocitová: 1.2 °C)
Vítr: 4 m/s z(e) 300°
Počasí: déšť
Dohlednost: 6 km
Zákl. oblačnosti: 7/8 480 m
Vlhkost: 100%
České Budějovice (C.Budej/po) 23.09.2017 08:00 UTC Zobrazit data
Místo: České Budějovice
Teplota: 10 °C (pocitová: 8 °C)
Vítr: 1 m/s z(e) 300°
Počasí:
Dohlednost: 23 km
Zákl. oblačnosti: N/A
Vlhkost: 88%
Cheb (Cheb) 23.09.2017 02:00 UTC Zobrazit data
Místo: Cheb
Teplota: 6 °C (pocitová: 3.1 °C)
Vítr: 1 m/s z(e) 0°
Počasí: mlha
Dohlednost: 200 m
Zákl. oblačnosti: 5/8 30 m;7/8 120 m
Vlhkost: 100%
Chotusice - Čáslav (Caslav) 23.09.2017 08:00 UTC Zobrazit data
Místo: Chotusice - Čáslav
Teplota: 10 °C (pocitová: 6.9 °C)
Vítr: 2 m/s z(e) 310°
Počasí: zataženo
Dohlednost: 7 km
Zákl. oblačnosti: 3/8 4200 m;5/8 6000 m
Vlhkost: 94%
Churáňov (Churanov) 23.09.2017 08:00 UTC Zobrazit data
Místo: Churáňov
Teplota: 10 °C (pocitová: 6.9 °C)
Vítr: 2 m/s z(e) 0°
Počasí: oblačno
Dohlednost: 20 km
Zákl. oblačnosti: 3/8 390 m;3/8 2400 m
Vlhkost: 82%
Doksany - Litoměřice (Doksany) 23.09.2017 08:00 UTC Zobrazit data
Místo: Doksany - Litoměřice
Teplota: 9 °C (pocitová: 6.8 °C)
Vítr: 1 m/s z(e) 0°
Počasí: skoro zataženo
Dohlednost: 3000 m
Zákl. oblačnosti: 6/8 360 m
Vlhkost: 100%
Dukovany (Dukovany) 23.09.2017 08:00 UTC Zobrazit data
Místo: Dukovany
Teplota: 10 °C (pocitová: 4.4 °C)
Vítr: 6 m/s z(e) 300°
Počasí: zataženo
Dohlednost: 8 km
Zákl. oblačnosti: 7/8 4200 m
Vlhkost: 94%
Holešov (Holesov) 23.09.2017 08:00 UTC Zobrazit data
Místo: Holešov
Teplota: 8 °C (pocitová: 4.4 °C)
Vítr: 2 m/s z(e) 240°
Počasí: déšť
Dohlednost: 6 km
Zákl. oblačnosti: 1/8 150 m;7/8 1290 m
Vlhkost: 100%
Kadaň - Tušimice (Tusimice) 23.09.2017 08:00 UTC Zobrazit data
Místo: Kadaň - Tušimice
Teplota: 13 °C (pocitová: 10.8 °C)
Vítr: 2 m/s z(e) 0°
Počasí: skorojasno
Dohlednost: 25 km
Zákl. oblačnosti: 2/8 4200 m
Vlhkost: 82%
Karlovy Vary (K.Vary) 23.09.2017 08:00 UTC Zobrazit data
Místo: Karlovy Vary
Teplota: 8 °C (pocitová: 5.5 °C)
Vítr: 1 m/s z(e) 220°
Počasí: skoro zataženo
Dohlednost: 6 km
Zákl. oblačnosti: 2/8 60 m;6/8 3900 m
Vlhkost: 100%
Kocelovice (Kocelovice) 23.09.2017 08:00 UTC Zobrazit data
Místo: Kocelovice
Teplota: 12 °C (pocitová: 8 °C)
Vítr: 4 m/s z(e) 270°
Počasí: skorojasno
Dohlednost: 25 km
Zákl. oblačnosti: 1/8 450 m
Vlhkost: 82%
Kopisty (Kopisty) 22.09.2017 21:00 UTC Zobrazit data
Místo: Kopisty
Teplota: 8 °C (pocitová: 18.1 °C)
Vítr: 0 m/s z(e) 0°
Počasí: slunečno
Dohlednost: 12 km
Zákl. oblačnosti: N/A
Vlhkost: 93%
Kostelní Myslová (K.Myslova) 23.09.2017 08:00 UTC Zobrazit data
Místo: Kostelní Myslová
Teplota: 12 °C (pocitová: 10.4 °C)
Vítr: 1 m/s z(e) 0°
Počasí: oblačno
Dohlednost: 14 km
Zákl. oblačnosti: 3/8 510 m
Vlhkost: 82%
Křešín - Kramolín (Kramolin) 23.09.2017 08:00 UTC Zobrazit data
Místo: Křešín - Kramolín
Teplota: 11 °C (pocitová: 8.2 °C)
Vítr: 2 m/s z(e) 0°
Počasí: zataženo
Dohlednost: 7 km
Zákl. oblačnosti: 2/8 6000 m
Vlhkost: 88%
Kuchařovice - Znojmo (Kucharovic) 23.09.2017 08:00 UTC Zobrazit data
Místo: Kuchařovice - Znojmo
Teplota: 12 °C (pocitová: 8.7 °C)
Vítr: 3 m/s z(e) 330°
Počasí: oblačno
Dohlednost: 13 km
Zákl. oblačnosti: 1/8 3600 m;3/8 5400 m
Vlhkost: 82%
Liberec (Liberec) 23.09.2017 08:00 UTC Zobrazit data
Místo: Liberec
Teplota: 10 °C (pocitová: 6.9 °C)
Vítr: 2 m/s z(e) 320°
Počasí: zataženo
Dohlednost: 8 km
Zákl. oblačnosti: 1/8 600 m;4/8 3000 m
Vlhkost: 94%
Luká (Luka) 23.09.2017 08:00 UTC Zobrazit data
Místo: Luká
Teplota: 9 °C (pocitová: 3.4 °C)
Vítr: 5 m/s z(e) 310°
Počasí: déšť
Dohlednost: 5 km
Zákl. oblačnosti: 8/8 1500 m
Vlhkost: 94%
Lysá Hora (Lysa Hora) 22.09.2017 19:00 UTC Zobrazit data
Místo: Lysá Hora
Teplota: 3 °C (pocitová: -6.6 °C)
Vítr: 9 m/s z(e) 10°
Počasí: skorojasno
Dohlednost: 45 km
Zákl. oblačnosti: 2/8 2100 m
Vlhkost: 87%
Milešovka (Milesovka) 23.09.2017 08:00 UTC Zobrazit data
Místo: Milešovka
Teplota: 11 °C (pocitová: 6.2 °C)
Vítr: 5 m/s z(e) 350°
Počasí: oblačno
Dohlednost: 13 km
Zákl. oblačnosti: 1/8 300 m
Vlhkost: 82%
Mošnov (Ostrava/Mo) 23.09.2017 08:00 UTC Zobrazit data
Místo: Mošnov
Teplota: 10 °C (pocitová: 5.3 °C)
Vítr: 4 m/s z(e) 220°
Počasí: déšť
Dohlednost: 7 km
Zákl. oblačnosti: 2/8 1200 m;8/8 1800 m
Vlhkost: 94%
Náměšť nad Oslavou (Namest n/O) 23.09.2017 08:00 UTC Zobrazit data
Místo: Náměšť nad Oslavou
Teplota: 10 °C (pocitová: 4.4 °C)
Vítr: 6 m/s z(e) 310°
Počasí: zataženo
Dohlednost: 3500 m
Zákl. oblačnosti: 1/8 150 m;6/8 3900 m
Vlhkost: 88%
Pardubice (Pardubice) 23.09.2017 08:00 UTC Zobrazit data
Místo: Pardubice
Teplota: 9 °C (pocitová: 3.9 °C)
Vítr: 4 m/s z(e) 280°
Počasí: zataženo
Dohlednost: 4000 m
Zákl. oblačnosti: 5/8 90 m;7/8 120 m
Vlhkost: 100%
Pec pod Sněžkou (Pec p.Snez) 23.09.2017 08:00 UTC Zobrazit data
Místo: Pec pod Sněžkou
Teplota: 9 °C (pocitová: 3.4 °C)
Vítr: 5 m/s z(e) 30°
Počasí: zataženo
Dohlednost: 20 km
Zákl. oblačnosti: 5/8 660 m;8/8 2100 m
Vlhkost: 82%
Plzeň město - Mikulka (Plzen/Miku) 23.09.2017 08:00 UTC Zobrazit data
Místo: Plzeň město - Mikulka
Teplota: 8 °C (pocitová: 4.4 °C)
Vítr: 2 m/s z(e) 0°
Počasí: skoro zataženo
Dohlednost: 3200 m
Zákl. oblačnosti: 6/8 90 m;7/8 3000 m
Vlhkost: 100%
Polom (Polom) 23.09.2017 08:00 UTC Zobrazit data
Místo: Polom
Teplota: 8 °C (pocitová: 3.3 °C)
Vítr: 3 m/s z(e) 360°
Počasí: zataženo
Dohlednost: 15 km
Zákl. oblačnosti: 3/8 1230 m;8/8 2700 m
Vlhkost: 93%
Praha - Karlov (Praha/Kar) 23.09.2017 08:00 UTC Zobrazit data
Místo: Praha - Karlov
Teplota: 10 °C (pocitová: 8 °C)
Vítr: 1 m/s z(e) 190°
Počasí: skorojasno
Dohlednost: 14 km
Zákl. oblačnosti: 1/8 6300 m
Vlhkost: 82%
Praha - Kbely (Praha/Kbe) 23.09.2017 08:00 UTC Zobrazit data
Místo: Praha - Kbely
Teplota: 12 °C (pocitová: 9.5 °C)
Vítr: 2 m/s z(e) 230°
Počasí: zataženo
Dohlednost: 7 km
Zákl. oblačnosti: 3/8 6000 m
Vlhkost: 88%
Praha - Libuš (Praha/Lib) 23.09.2017 03:00 UTC Zobrazit data
Místo: Praha - Libuš
Teplota: 6 °C (pocitová: 3.1 °C)
Vítr: 1 m/s z(e) 0°
Počasí: zataženo
Dohlednost: 2700 m
Zákl. oblačnosti: N/A
Vlhkost: 93%
Praha - Ruzyně (Praha/Ru) 23.09.2017 08:00 UTC Zobrazit data
Místo: Praha - Ruzyně
Teplota: 13 °C (pocitová: 10.8 °C)
Vítr: 2 m/s z(e) 320°
Počasí: oblačno
Dohlednost: 15 km
Zákl. oblačnosti: 1/8 2400 m;3/8 7800 m
Vlhkost: 82%
Přibyslav (Pribyslav) 23.09.2017 05:00 UTC Zobrazit data
Místo: Přibyslav
Teplota: 4 °C (pocitová: -0.8 °C)
Vítr: 2 m/s z(e) 310°
Počasí: mlha
Dohlednost: 200 m
Zákl. oblačnosti: 8/8 150 m
Vlhkost: 100%
Přimda (Primda) 23.09.2017 08:00 UTC Zobrazit data
Místo: Přimda
Teplota: 11 °C (pocitová: 8.2 °C)
Vítr: 2 m/s z(e) 290°
Počasí: oblačno
Dohlednost: 22 km
Zákl. oblačnosti: 3/8 4800 m
Vlhkost: 82%
Šerák (Serak) 22.09.2017 18:00 UTC Zobrazit data
Místo: Šerák
Teplota: 4 °C (pocitová: -2 °C)
Vítr: 3 m/s z(e) 350°
Počasí: oblačno
Dohlednost: 900 m
Zákl. oblačnosti: N/A
Vlhkost: 93%
Svratouch (Svratouch) 23.09.2017 08:00 UTC Zobrazit data
Místo: Svratouch
Teplota: 8 °C (pocitová: 2.6 °C)
Vítr: 4 m/s z(e) 340°
Počasí: zataženo
Dohlednost: 4000 m
Zákl. oblačnosti: 8/8 60 m
Vlhkost: 100%
Temelín (Temelin) 23.09.2017 08:00 UTC Zobrazit data
Místo: Temelín
Teplota: 10 °C (pocitová: 8 °C)
Vítr: 1 m/s z(e) 220°
Počasí: skorojasno
Dohlednost: 25 km
Zákl. oblačnosti: 1/8 180 m
Vlhkost: 88%
Ústí nad Labem - Kočkov (Usti n/L) 23.09.2017 08:00 UTC Zobrazit data
Místo: Ústí nad Labem - Kočkov
Teplota: 11 °C (pocitová: 9.2 °C)
Vítr: 1 m/s z(e) 350°
Počasí: oblačno
Dohlednost: 1000 m
Zákl. oblačnosti: 2/8 750 m;3/8 6000 m
Vlhkost: 88%
Ústí nad Orlicí (Usti n/O) 23.09.2017 08:00 UTC Zobrazit data
Místo: Ústí nad Orlicí
Teplota: 8 °C (pocitová: 3.3 °C)
Vítr: 3 m/s z(e) 280°
Počasí: déšť
Dohlednost: 1700 m
Zákl. oblačnosti: 3/8 90 m;8/8 1500 m
Vlhkost: 100%
Aalborg (EKYT) 23.09.2017 07:57 UTC Zobrazit METAR
EKYT 230757Z 35001KT 5000 BCFG SCT025 BKN035 14/13 Q1025
Aarhus (EKAH) 23.09.2017 08:50 UTC Zobrazit METAR
EKAH 230850Z 35003KT 7000 BKN003 BKN034 13/13 Q1025
Abu Dhabi (OMAA) 23.09.2017 09:00 UTC Zobrazit METAR
OMAA 230900Z 16006KT 090V200 CAVOK 41/12 Q1005 NOSIG
Abuja (DNAA) 22.09.2017 07:00 UTC Zobrazit METAR
DNAA 220700Z 20003KT 150V230 9999 BKN008 24/21 Q1015 NOSIG
Accra (DGAA) 23.09.2017 09:00 UTC Zobrazit METAR
DGAA 230900Z 24008KT 9999 SCT014 OVC040 26/24 Q1016 NOSIG
Addis Abeba (HAAB) 23.09.2017 08:00 UTC Zobrazit METAR
HAAB 230800Z 15006KT 9999 SCT024 19/13 Q1027
Agana (PGUM) 23.09.2017 08:54 UTC Zobrazit METAR
PGUM 230854Z 04011KT 10SM -RA FEW019 SCT029 BKN043 29/26 A2985 RMK AO2 RAB50 SLP101 P0000 60000 T02890261 53012
Ahe Island (NTHE) Zatím nenačteno  
Akureyri (BIAR) 23.09.2017 09:00 UTC Zobrazit METAR
BIAR 230900Z VRB03KT 9999 -RA SCT050 08/04 Q1000
Almaty (UAAA) Zatím nenačteno  
Amman (OJAM) 23.09.2017 09:00 UTC Zobrazit METAR
OJAM 230900Z 36008KT 5000 HZ NSC 25/14 Q1018 NOSIG
Amsterdam (EHAM) 23.09.2017 08:55 UTC Zobrazit METAR
EHAM 230855Z 18004KT 9999 FEW020 15/11 Q1025 NOSIG
Antananarivo (FMMI) 23.09.2017 09:00 UTC Zobrazit METAR
FMMI 230900Z VRB03KT 360V110 9999 BKN017 23/14 Q1021 NOSIG
1 2 3 ... 9 Další
Reklama

Počasí na Váš email

Emaily jsou bez reklamy a bez spamu



Odhlásit newsletter

Reklama


Lunární kalendář

  • 28.09.
  • 05.10.
  • 12.10.
  • 19.10.



Jsme na Google Plus

Reklama
Povinné ručení



Může Vás také zajímat:


Reklama